sensor_id;sensor_type;location;lat;lon;timestamp;P1;durP1;ratioP1;P2;durP2;ratioP2
73089;SDS011;61269;49.450;8.610;2023-04-03T00:00:42;2.70;;;1.73;;
73089;SDS011;61269;49.450;8.610;2023-04-03T00:03:16;2.63;;;1.25;;
73089;SDS011;61269;49.450;8.610;2023-04-03T00:05:44;1.77;;;1.20;;
73089;SDS011;61269;49.450;8.610;2023-04-03T00:08:13;2.00;;;1.40;;
73089;SDS011;61269;49.450;8.610;2023-04-03T00:10:41;2.38;;;1.25;;
73089;SDS011;61269;49.450;8.610;2023-04-03T00:13:11;2.30;;;1.50;;
73089;SDS011;61269;49.450;8.610;2023-04-03T00:15:39;4.00;;;1.35;;
73089;SDS011;61269;49.450;8.610;2023-04-03T00:18:07;2.95;;;1.15;;
73089;SDS011;61269;49.450;8.610;2023-04-03T00:20:36;3.80;;;1.70;;
73089;SDS011;61269;49.450;8.610;2023-04-03T00:23:05;3.92;;;1.63;;
73089;SDS011;61269;49.450;8.610;2023-04-03T00:25:33;2.10;;;1.50;;
73089;SDS011;61269;49.450;8.610;2023-04-03T00:28:01;2.30;;;1.25;;
73089;SDS011;61269;49.450;8.610;2023-04-03T00:30:31;2.60;;;1.60;;
73089;SDS011;61269;49.450;8.610;2023-04-03T00:33:00;2.45;;;1.50;;
73089;SDS011;61269;49.450;8.610;2023-04-03T00:35:28;3.08;;;1.40;;
73089;SDS011;61269;49.450;8.610;2023-04-03T00:37:57;3.03;;;1.70;;
73089;SDS011;61269;49.450;8.610;2023-04-03T00:40:25;5.95;;;1.65;;
73089;SDS011;61269;49.450;8.610;2023-04-03T00:42:55;3.30;;;1.70;;
73089;SDS011;61269;49.450;8.610;2023-04-03T00:45:29;5.93;;;1.30;;
73089;SDS011;61269;49.450;8.610;2023-04-03T00:48:02;2.40;;;1.40;;
73089;SDS011;61269;49.450;8.610;2023-04-03T00:50:33;3.27;;;1.20;;
73089;SDS011;61269;49.450;8.610;2023-04-03T00:53:04;2.40;;;1.73;;
73089;SDS011;61269;49.450;8.610;2023-04-03T00:55:33;2.83;;;1.73;;
73089;SDS011;61269;49.450;8.610;2023-04-03T00:58:02;4.05;;;1.67;;
73089;SDS011;61269;49.450;8.610;2023-04-03T01:00:30;4.80;;;2.58;;
73089;SDS011;61269;49.450;8.610;2023-04-03T01:03:00;3.00;;;2.17;;
73089;SDS011;61269;49.450;8.610;2023-04-03T01:05:28;5.28;;;1.52;;
73089;SDS011;61269;49.450;8.610;2023-04-03T01:07:59;2.80;;;1.42;;
73089;SDS011;61269;49.450;8.610;2023-04-03T01:10:27;4.50;;;2.22;;
73089;SDS011;61269;49.450;8.610;2023-04-03T01:12:57;2.38;;;1.40;;
73089;SDS011;61269;49.450;8.610;2023-04-03T01:15:28;3.17;;;1.57;;
73089;SDS011;61269;49.450;8.610;2023-04-03T01:17:57;4.22;;;1.45;;
73089;SDS011;61269;49.450;8.610;2023-04-03T01:23:44;4.00;;;1.52;;
73089;SDS011;61269;49.450;8.610;2023-04-03T01:26:20;4.07;;;1.60;;
73089;SDS011;61269;49.450;8.610;2023-04-03T01:28:48;2.37;;;1.60;;
73089;SDS011;61269;49.450;8.610;2023-04-03T01:31:19;2.65;;;1.80;;
73089;SDS011;61269;49.450;8.610;2023-04-03T01:33:50;2.47;;;1.45;;
73089;SDS011;61269;49.450;8.610;2023-04-03T01:36:19;2.50;;;1.27;;
73089;SDS011;61269;49.450;8.610;2023-04-03T01:38:49;2.63;;;1.65;;
73089;SDS011;61269;49.450;8.610;2023-04-03T01:41:17;2.57;;;1.67;;
73089;SDS011;61269;49.450;8.610;2023-04-03T01:43:48;2.70;;;1.65;;
73089;SDS011;61269;49.450;8.610;2023-04-03T01:46:16;4.53;;;2.15;;
73089;SDS011;61269;49.450;8.610;2023-04-03T01:48:45;2.72;;;1.75;;
73089;SDS011;61269;49.450;8.610;2023-04-03T01:51:14;3.13;;;1.90;;
73089;SDS011;61269;49.450;8.610;2023-04-03T01:53:43;3.27;;;1.67;;
73089;SDS011;61269;49.450;8.610;2023-04-03T01:56:11;2.15;;;1.48;;
73089;SDS011;61269;49.450;8.610;2023-04-03T01:58:39;2.35;;;1.55;;
73089;SDS011;61269;49.450;8.610;2023-04-03T02:01:07;2.38;;;1.10;;
73089;SDS011;61269;49.450;8.610;2023-04-03T02:03:36;3.67;;;1.52;;
73089;SDS011;61269;49.450;8.610;2023-04-03T02:06:04;5.03;;;1.60;;
73089;SDS011;61269;49.450;8.610;2023-04-03T02:08:34;2.92;;;1.90;;
73089;SDS011;61269;49.450;8.610;2023-04-03T02:11:02;3.88;;;1.65;;
73089;SDS011;61269;49.450;8.610;2023-04-03T02:13:30;5.18;;;1.80;;
73089;SDS011;61269;49.450;8.610;2023-04-03T02:15:59;3.70;;;2.15;;
73089;SDS011;61269;49.450;8.610;2023-04-03T02:18:28;4.03;;;2.53;;
73089;SDS011;61269;49.450;8.610;2023-04-03T02:20:56;2.33;;;1.42;;
73089;SDS011;61269;49.450;8.610;2023-04-03T02:23:24;3.38;;;1.58;;
73089;SDS011;61269;49.450;8.610;2023-04-03T02:26:01;3.05;;;1.38;;
73089;SDS011;61269;49.450;8.610;2023-04-03T02:28:30;3.55;;;1.88;;
73089;SDS011;61269;49.450;8.610;2023-04-03T02:30:59;2.67;;;1.83;;
73089;SDS011;61269;49.450;8.610;2023-04-03T02:33:28;3.08;;;1.67;;
73089;SDS011;61269;49.450;8.610;2023-04-03T02:35:57;3.90;;;1.95;;
73089;SDS011;61269;49.450;8.610;2023-04-03T02:38:26;3.83;;;1.60;;
73089;SDS011;61269;49.450;8.610;2023-04-03T02:41:00;2.70;;;1.70;;
73089;SDS011;61269;49.450;8.610;2023-04-03T02:43:30;2.47;;;1.97;;
73089;SDS011;61269;49.450;8.610;2023-04-03T02:45:58;2.25;;;1.42;;
73089;SDS011;61269;49.450;8.610;2023-04-03T02:48:27;2.78;;;1.90;;
73089;SDS011;61269;49.450;8.610;2023-04-03T02:50:55;3.30;;;1.52;;
73089;SDS011;61269;49.450;8.610;2023-04-03T02:53:23;2.88;;;1.90;;
73089;SDS011;61269;49.450;8.610;2023-04-03T02:55:52;2.87;;;1.67;;
73089;SDS011;61269;49.450;8.610;2023-04-03T02:58:21;2.70;;;1.58;;
73089;SDS011;61269;49.450;8.610;2023-04-03T03:00:50;3.92;;;1.40;;
73089;SDS011;61269;49.450;8.610;2023-04-03T03:03:19;3.67;;;1.65;;
73089;SDS011;61269;49.450;8.610;2023-04-03T03:05:47;3.90;;;2.08;;
73089;SDS011;61269;49.450;8.610;2023-04-03T03:08:15;4.10;;;1.77;;
73089;SDS011;61269;49.450;8.610;2023-04-03T03:10:46;2.97;;;1.63;;
73089;SDS011;61269;49.450;8.610;2023-04-03T03:13:14;2.80;;;1.77;;
73089;SDS011;61269;49.450;8.610;2023-04-03T03:15:44;2.85;;;1.90;;
73089;SDS011;61269;49.450;8.610;2023-04-03T03:18:12;2.75;;;1.70;;
73089;SDS011;61269;49.450;8.610;2023-04-03T03:20:40;6.33;;;1.53;;
73089;SDS011;61269;49.450;8.610;2023-04-03T03:23:09;3.00;;;1.90;;
73089;SDS011;61269;49.450;8.610;2023-04-03T03:25:37;2.03;;;1.35;;
73089;SDS011;61269;49.450;8.610;2023-04-03T03:28:07;2.22;;;1.58;;
73089;SDS011;61269;49.450;8.610;2023-04-03T03:30:35;2.63;;;1.52;;
73089;SDS011;61269;49.450;8.610;2023-04-03T03:33:05;2.93;;;1.80;;
73089;SDS011;61269;49.450;8.610;2023-04-03T03:35:33;3.53;;;1.85;;
73089;SDS011;61269;49.450;8.610;2023-04-03T03:38:04;2.20;;;1.40;;
73089;SDS011;61269;49.450;8.610;2023-04-03T03:40:32;3.38;;;1.88;;
73089;SDS011;61269;49.450;8.610;2023-04-03T03:43:01;5.03;;;2.03;;
73089;SDS011;61269;49.450;8.610;2023-04-03T03:45:29;2.57;;;1.93;;
73089;SDS011;61269;49.450;8.610;2023-04-03T03:47:58;3.03;;;1.92;;
73089;SDS011;61269;49.450;8.610;2023-04-03T03:50:27;2.75;;;2.00;;
73089;SDS011;61269;49.450;8.610;2023-04-03T03:52:56;2.90;;;1.80;;
73089;SDS011;61269;49.450;8.610;2023-04-03T03:55:24;3.30;;;1.75;;
73089;SDS011;61269;49.450;8.610;2023-04-03T03:57:54;3.07;;;1.73;;
73089;SDS011;61269;49.450;8.610;2023-04-03T04:00:22;3.80;;;1.52;;
73089;SDS011;61269;49.450;8.610;2023-04-03T04:02:54;2.15;;;1.38;;
73089;SDS011;61269;49.450;8.610;2023-04-03T04:05:26;4.00;;;1.80;;
73089;SDS011;61269;49.450;8.610;2023-04-03T04:07:55;2.95;;;1.63;;
73089;SDS011;61269;49.450;8.610;2023-04-03T04:10:24;3.23;;;1.73;;
73089;SDS011;61269;49.450;8.610;2023-04-03T04:12:53;1.80;;;1.17;;
73089;SDS011;61269;49.450;8.610;2023-04-03T04:15:25;5.18;;;2.35;;
73089;SDS011;61269;49.450;8.610;2023-04-03T04:17:55;2.78;;;1.75;;
73089;SDS011;61269;49.450;8.610;2023-04-03T04:20:24;1.90;;;1.23;;
73089;SDS011;61269;49.450;8.610;2023-04-03T04:22:54;3.83;;;1.80;;
73089;SDS011;61269;49.450;8.610;2023-04-03T04:25:23;3.22;;;2.00;;
73089;SDS011;61269;49.450;8.610;2023-04-03T04:27:52;4.18;;;1.95;;
73089;SDS011;61269;49.450;8.610;2023-04-03T04:30:21;3.17;;;1.90;;
73089;SDS011;61269;49.450;8.610;2023-04-03T04:32:50;4.07;;;2.38;;
73089;SDS011;61269;49.450;8.610;2023-04-03T04:35:19;3.20;;;1.17;;
73089;SDS011;61269;49.450;8.610;2023-04-03T04:37:50;3.00;;;1.67;;
73089;SDS011;61269;49.450;8.610;2023-04-03T04:40:19;2.70;;;1.60;;
73089;SDS011;61269;49.450;8.610;2023-04-03T04:42:48;4.30;;;2.00;;
73089;SDS011;61269;49.450;8.610;2023-04-03T04:45:16;3.38;;;1.80;;
73089;SDS011;61269;49.450;8.610;2023-04-03T04:47:46;2.13;;;1.50;;
73089;SDS011;61269;49.450;8.610;2023-04-03T04:50:15;2.10;;;1.40;;
73089;SDS011;61269;49.450;8.610;2023-04-03T04:52:44;2.22;;;1.52;;
73089;SDS011;61269;49.450;8.610;2023-04-03T04:55:12;2.13;;;1.40;;
73089;SDS011;61269;49.450;8.610;2023-04-03T04:57:42;2.58;;;1.75;;
73089;SDS011;61269;49.450;8.610;2023-04-03T05:00:11;2.63;;;1.70;;
73089;SDS011;61269;49.450;8.610;2023-04-03T05:02:40;4.32;;;2.05;;
73089;SDS011;61269;49.450;8.610;2023-04-03T05:05:09;1.98;;;1.60;;
73089;SDS011;61269;49.450;8.610;2023-04-03T05:07:37;3.40;;;1.80;;
73089;SDS011;61269;49.450;8.610;2023-04-03T05:10:06;3.50;;;1.80;;
73089;SDS011;61269;49.450;8.610;2023-04-03T05:12:37;2.13;;;1.50;;
73089;SDS011;61269;49.450;8.610;2023-04-03T05:15:07;2.83;;;2.03;;
73089;SDS011;61269;49.450;8.610;2023-04-03T05:17:36;6.93;;;2.25;;
73089;SDS011;61269;49.450;8.610;2023-04-03T05:20:07;2.85;;;1.60;;
73089;SDS011;61269;49.450;8.610;2023-04-03T05:22:36;2.33;;;1.50;;
73089;SDS011;61269;49.450;8.610;2023-04-03T05:25:08;4.53;;;1.60;;
73089;SDS011;61269;49.450;8.610;2023-04-03T05:27:38;2.80;;;1.60;;
73089;SDS011;61269;49.450;8.610;2023-04-03T05:30:08;2.53;;;1.58;;
73089;SDS011;61269;49.450;8.610;2023-04-03T05:32:39;2.03;;;1.25;;
73089;SDS011;61269;49.450;8.610;2023-04-03T05:35:22;2.42;;;1.45;;
73089;SDS011;61269;49.450;8.610;2023-04-03T05:37:55;2.00;;;1.50;;
73089;SDS011;61269;49.450;8.610;2023-04-03T05:40:24;1.90;;;1.52;;
73089;SDS011;61269;49.450;8.610;2023-04-03T05:42:54;2.72;;;1.63;;
73089;SDS011;61269;49.450;8.610;2023-04-03T05:45:26;2.65;;;1.80;;
73089;SDS011;61269;49.450;8.610;2023-04-03T05:47:54;3.38;;;2.20;;
73089;SDS011;61269;49.450;8.610;2023-04-03T05:50:23;3.57;;;2.20;;
73089;SDS011;61269;49.450;8.610;2023-04-03T05:52:53;2.45;;;1.73;;
73089;SDS011;61269;49.450;8.610;2023-04-03T05:55:25;5.30;;;2.47;;
73089;SDS011;61269;49.450;8.610;2023-04-03T05:57:53;5.20;;;2.58;;
73089;SDS011;61269;49.450;8.610;2023-04-03T06:00:22;3.22;;;1.95;;
73089;SDS011;61269;49.450;8.610;2023-04-03T06:03:00;3.03;;;2.07;;
73089;SDS011;61269;49.450;8.610;2023-04-03T06:05:29;2.58;;;1.90;;
73089;SDS011;61269;49.450;8.610;2023-04-03T06:07:57;3.83;;;1.80;;
73089;SDS011;61269;49.450;8.610;2023-04-03T06:10:25;2.95;;;1.67;;
73089;SDS011;61269;49.450;8.610;2023-04-03T06:12:54;3.70;;;2.00;;
73089;SDS011;61269;49.450;8.610;2023-04-03T06:15:22;3.30;;;1.83;;
73089;SDS011;61269;49.450;8.610;2023-04-03T06:17:51;2.97;;;1.90;;
73089;SDS011;61269;49.450;8.610;2023-04-03T06:20:21;4.20;;;2.08;;
73089;SDS011;61269;49.450;8.610;2023-04-03T06:22:49;4.30;;;1.75;;
73089;SDS011;61269;49.450;8.610;2023-04-03T06:25:18;3.15;;;1.85;;
73089;SDS011;61269;49.450;8.610;2023-04-03T06:27:46;2.50;;;1.40;;
73089;SDS011;61269;49.450;8.610;2023-04-03T06:30:14;1.98;;;1.42;;
73089;SDS011;61269;49.450;8.610;2023-04-03T06:32:42;2.88;;;1.85;;
73089;SDS011;61269;49.450;8.610;2023-04-03T06:35:10;3.33;;;2.00;;
73089;SDS011;61269;49.450;8.610;2023-04-03T06:37:40;3.00;;;2.10;;
73089;SDS011;61269;49.450;8.610;2023-04-03T06:40:10;2.23;;;1.20;;
73089;SDS011;61269;49.450;8.610;2023-04-03T06:42:40;3.20;;;1.50;;
73089;SDS011;61269;49.450;8.610;2023-04-03T06:45:11;3.63;;;1.92;;
73089;SDS011;61269;49.450;8.610;2023-04-03T06:47:39;4.07;;;1.77;;
73089;SDS011;61269;49.450;8.610;2023-04-03T06:50:08;4.05;;;2.00;;
73089;SDS011;61269;49.450;8.610;2023-04-03T06:52:38;3.67;;;1.93;;
73089;SDS011;61269;49.450;8.610;2023-04-03T06:55:08;2.78;;;1.70;;
73089;SDS011;61269;49.450;8.610;2023-04-03T06:57:37;3.67;;;2.03;;
73089;SDS011;61269;49.450;8.610;2023-04-03T07:00:06;4.25;;;1.92;;
73089;SDS011;61269;49.450;8.610;2023-04-03T07:02:36;3.28;;;1.80;;
73089;SDS011;61269;49.450;8.610;2023-04-03T07:05:04;2.63;;;1.70;;
73089;SDS011;61269;49.450;8.610;2023-04-03T07:07:33;2.55;;;1.88;;
73089;SDS011;61269;49.450;8.610;2023-04-03T07:10:02;2.63;;;1.80;;
73089;SDS011;61269;49.450;8.610;2023-04-03T07:12:33;4.70;;;1.90;;
73089;SDS011;61269;49.450;8.610;2023-04-03T07:15:02;3.22;;;1.77;;
73089;SDS011;61269;49.450;8.610;2023-04-03T07:17:30;4.50;;;1.90;;
73089;SDS011;61269;49.450;8.610;2023-04-03T07:19:59;2.17;;;1.58;;
73089;SDS011;61269;49.450;8.610;2023-04-03T07:22:30;5.07;;;1.67;;
73089;SDS011;61269;49.450;8.610;2023-04-03T07:24:59;2.53;;;1.52;;
73089;SDS011;61269;49.450;8.610;2023-04-03T07:27:27;2.35;;;1.33;;
73089;SDS011;61269;49.450;8.610;2023-04-03T07:29:57;3.60;;;1.93;;
73089;SDS011;61269;49.450;8.610;2023-04-03T07:32:25;2.33;;;1.58;;
73089;SDS011;61269;49.450;8.610;2023-04-03T07:34:53;4.35;;;2.20;;
73089;SDS011;61269;49.450;8.610;2023-04-03T07:37:22;2.33;;;1.30;;
73089;SDS011;61269;49.450;8.610;2023-04-03T07:39:50;2.92;;;1.55;;
73089;SDS011;61269;49.450;8.610;2023-04-03T07:42:18;2.63;;;1.70;;
73089;SDS011;61269;49.450;8.610;2023-04-03T07:44:47;4.78;;;2.00;;
73089;SDS011;61269;49.450;8.610;2023-04-03T07:47:16;3.05;;;1.67;;
73089;SDS011;61269;49.450;8.610;2023-04-03T07:49:45;3.95;;;1.60;;
73089;SDS011;61269;49.450;8.610;2023-04-03T07:52:13;3.13;;;1.90;;
73089;SDS011;61269;49.450;8.610;2023-04-03T07:54:42;2.80;;;1.70;;
73089;SDS011;61269;49.450;8.610;2023-04-03T07:57:10;3.72;;;1.88;;
73089;SDS011;61269;49.450;8.610;2023-04-03T07:59:38;5.32;;;1.70;;
73089;SDS011;61269;49.450;8.610;2023-04-03T08:02:08;2.08;;;1.55;;
73089;SDS011;61269;49.450;8.610;2023-04-03T08:04:38;4.13;;;1.30;;
73089;SDS011;61269;49.450;8.610;2023-04-03T08:07:07;3.90;;;1.47;;
73089;SDS011;61269;49.450;8.610;2023-04-03T08:09:35;2.13;;;1.45;;
73089;SDS011;61269;49.450;8.610;2023-04-03T08:12:03;1.90;;;1.30;;
73089;SDS011;61269;49.450;8.610;2023-04-03T08:14:31;2.30;;;1.60;;
73089;SDS011;61269;49.450;8.610;2023-04-03T08:17:01;2.92;;;1.30;;
73089;SDS011;61269;49.450;8.610;2023-04-03T08:19:31;2.20;;;1.00;;
73089;SDS011;61269;49.450;8.610;2023-04-03T08:22:01;5.63;;;1.15;;
73089;SDS011;61269;49.450;8.610;2023-04-03T08:24:30;2.28;;;1.23;;
73089;SDS011;61269;49.450;8.610;2023-04-03T08:26:58;3.35;;;1.40;;
73089;SDS011;61269;49.450;8.610;2023-04-03T08:29:26;1.83;;;1.25;;
73089;SDS011;61269;49.450;8.610;2023-04-03T08:31:55;1.87;;;1.20;;
73089;SDS011;61269;49.450;8.610;2023-04-03T08:34:23;2.50;;;1.38;;
73089;SDS011;61269;49.450;8.610;2023-04-03T08:36:51;1.98;;;1.50;;
73089;SDS011;61269;49.450;8.610;2023-04-03T08:39:20;1.33;;;0.93;;
73089;SDS011;61269;49.450;8.610;2023-04-03T08:41:49;1.75;;;1.20;;
73089;SDS011;61269;49.450;8.610;2023-04-03T08:44:18;3.13;;;1.40;;
73089;SDS011;61269;49.450;8.610;2023-04-03T08:49:40;1.70;;;1.27;;
73089;SDS011;61269;49.450;8.610;2023-04-03T08:52:15;1.77;;;1.00;;
73089;SDS011;61269;49.450;8.610;2023-04-03T08:54:50;3.83;;;1.48;;
73089;SDS011;61269;49.450;8.610;2023-04-03T08:57:25;1.50;;;0.90;;
73089;SDS011;61269;49.450;8.610;2023-04-03T08:59:57;1.67;;;1.10;;
73089;SDS011;61269;49.450;8.610;2023-04-03T09:02:27;1.77;;;1.20;;
73089;SDS011;61269;49.450;8.610;2023-04-03T09:04:59;2.15;;;1.10;;
73089;SDS011;61269;49.450;8.610;2023-04-03T09:07:30;3.22;;;1.35;;
73089;SDS011;61269;49.450;8.610;2023-04-03T09:10:02;1.80;;;1.13;;
73089;SDS011;61269;49.450;8.610;2023-04-03T09:12:34;1.40;;;1.10;;
73089;SDS011;61269;49.450;8.610;2023-04-03T09:15:07;1.45;;;0.88;;
73089;SDS011;61269;49.450;8.610;2023-04-03T09:17:41;1.60;;;1.15;;
73089;SDS011;61269;49.450;8.610;2023-04-03T09:20:15;2.90;;;1.10;;
73089;SDS011;61269;49.450;8.610;2023-04-03T09:22:47;1.83;;;1.10;;
73089;SDS011;61269;49.450;8.610;2023-04-03T09:25:21;3.25;;;1.20;;
73089;SDS011;61269;49.450;8.610;2023-04-03T09:27:51;2.63;;;1.40;;
73089;SDS011;61269;49.450;8.610;2023-04-03T09:30:19;3.17;;;1.08;;
73089;SDS011;61269;49.450;8.610;2023-04-03T09:32:49;2.22;;;1.00;;
73089;SDS011;61269;49.450;8.610;2023-04-03T09:35:19;1.87;;;1.07;;
73089;SDS011;61269;49.450;8.610;2023-04-03T09:38:14;1.83;;;1.20;;
73089;SDS011;61269;49.450;8.610;2023-04-03T09:40:46;2.28;;;1.00;;
73089;SDS011;61269;49.450;8.610;2023-04-03T09:43:20;2.60;;;1.60;;
73089;SDS011;61269;49.450;8.610;2023-04-03T09:45:50;2.65;;;1.13;;
73089;SDS011;61269;49.450;8.610;2023-04-03T09:48:20;2.30;;;1.20;;
73089;SDS011;61269;49.450;8.610;2023-04-03T09:50:54;2.28;;;1.25;;
73089;SDS011;61269;49.450;8.610;2023-04-03T09:53:30;2.20;;;1.23;;
73089;SDS011;61269;49.450;8.610;2023-04-03T09:56:02;1.52;;;0.90;;
73089;SDS011;61269;49.450;8.610;2023-04-03T09:58:33;3.00;;;1.27;;
73089;SDS011;61269;49.450;8.610;2023-04-03T10:01:26;3.40;;;1.10;;
73089;SDS011;61269;49.450;8.610;2023-04-03T10:04:06;2.20;;;1.25;;
73089;SDS011;61269;49.450;8.610;2023-04-03T10:06:37;2.17;;;0.90;;
73089;SDS011;61269;49.450;8.610;2023-04-03T10:09:17;2.90;;;1.50;;
73089;SDS011;61269;49.450;8.610;2023-04-03T10:11:58;2.00;;;0.98;;
73089;SDS011;61269;49.450;8.610;2023-04-03T10:14:28;2.20;;;1.30;;
73089;SDS011;61269;49.450;8.610;2023-04-03T10:16:59;2.17;;;1.20;;
73089;SDS011;61269;49.450;8.610;2023-04-03T10:19:32;1.48;;;1.08;;
73089;SDS011;61269;49.450;8.610;2023-04-03T10:22:03;1.33;;;0.98;;
73089;SDS011;61269;49.450;8.610;2023-04-03T10:24:42;2.10;;;1.20;;
73089;SDS011;61269;49.450;8.610;2023-04-03T10:27:17;3.70;;;1.43;;
73089;SDS011;61269;49.450;8.610;2023-04-03T10:29:50;2.55;;;1.30;;
73089;SDS011;61269;49.450;8.610;2023-04-03T10:32:32;1.50;;;0.77;;
73089;SDS011;61269;49.450;8.610;2023-04-03T10:35:15;1.30;;;0.80;;
73089;SDS011;61269;49.450;8.610;2023-04-03T10:38:00;1.77;;;0.60;;
73089;SDS011;61269;49.450;8.610;2023-04-03T10:40:34;2.27;;;1.07;;
73089;SDS011;61269;49.450;8.610;2023-04-03T10:43:11;2.10;;;0.90;;
73089;SDS011;61269;49.450;8.610;2023-04-03T10:45:47;1.48;;;0.70;;
73089;SDS011;61269;49.450;8.610;2023-04-03T10:48:21;1.92;;;0.82;;
73089;SDS011;61269;49.450;8.610;2023-04-03T10:51:00;3.40;;;1.00;;
73089;SDS011;61269;49.450;8.610;2023-04-03T10:53:36;2.57;;;1.37;;
73089;SDS011;61269;49.450;8.610;2023-04-03T10:56:08;2.10;;;0.95;;
73089;SDS011;61269;49.450;8.610;2023-04-03T10:58:43;1.90;;;0.98;;
73089;SDS011;61269;49.450;8.610;2023-04-03T11:01:13;2.03;;;0.93;;
73089;SDS011;61269;49.450;8.610;2023-04-03T11:03:44;2.85;;;1.00;;
73089;SDS011;61269;49.450;8.610;2023-04-03T11:06:15;1.90;;;1.03;;
73089;SDS011;61269;49.450;8.610;2023-04-03T11:08:45;3.28;;;1.33;;
73089;SDS011;61269;49.450;8.610;2023-04-03T11:11:17;1.98;;;0.90;;
73089;SDS011;61269;49.450;8.610;2023-04-03T11:13:49;1.63;;;0.90;;
73089;SDS011;61269;49.450;8.610;2023-04-03T11:16:21;1.88;;;1.00;;
73089;SDS011;61269;49.450;8.610;2023-04-03T11:18:52;1.47;;;0.90;;
73089;SDS011;61269;49.450;8.610;2023-04-03T11:21:21;2.33;;;1.33;;
73089;SDS011;61269;49.450;8.610;2023-04-03T11:23:52;1.70;;;0.70;;
73089;SDS011;61269;49.450;8.610;2023-04-03T11:26:22;2.00;;;1.20;;
73089;SDS011;61269;49.450;8.610;2023-04-03T11:28:56;2.33;;;1.10;;
73089;SDS011;61269;49.450;8.610;2023-04-03T11:31:36;2.20;;;1.00;;
73089;SDS011;61269;49.450;8.610;2023-04-03T11:34:16;1.67;;;1.00;;
73089;SDS011;61269;49.450;8.610;2023-04-03T11:36:50;2.17;;;0.90;;
73089;SDS011;61269;49.450;8.610;2023-04-03T11:39:22;1.88;;;0.93;;
73089;SDS011;61269;49.450;8.610;2023-04-03T11:41:52;2.15;;;1.00;;
73089;SDS011;61269;49.450;8.610;2023-04-03T11:44:38;1.90;;;0.90;;
73089;SDS011;61269;49.450;8.610;2023-04-03T11:52:59;2.05;;;1.15;;
73089;SDS011;61269;49.450;8.610;2023-04-03T11:58:23;1.80;;;1.27;;
73089;SDS011;61269;49.450;8.610;2023-04-03T12:00:55;1.80;;;0.85;;
73089;SDS011;61269;49.450;8.610;2023-04-03T12:12:33;2.03;;;1.10;;
73089;SDS011;61269;49.450;8.610;2023-04-03T12:15:17;3.15;;;1.08;;
73089;SDS011;61269;49.450;8.610;2023-04-03T12:17:48;1.90;;;1.10;;
73089;SDS011;61269;49.450;8.610;2023-04-03T12:23:25;1.85;;;0.95;;
73089;SDS011;61269;49.450;8.610;2023-04-03T12:25:59;2.87;;;1.20;;
73089;SDS011;61269;49.450;8.610;2023-04-03T12:28:38;1.70;;;0.93;;
73089;SDS011;61269;49.450;8.610;2023-04-03T12:31:07;3.85;;;1.25;;
73089;SDS011;61269;49.450;8.610;2023-04-03T12:33:46;1.90;;;1.20;;
73089;SDS011;61269;49.450;8.610;2023-04-03T12:36:28;7.22;;;1.00;;
73089;SDS011;61269;49.450;8.610;2023-04-03T12:39:03;1.30;;;0.57;;
73089;SDS011;61269;49.450;8.610;2023-04-03T12:41:38;1.88;;;0.80;;
73089;SDS011;61269;49.450;8.610;2023-04-03T12:44:16;1.52;;;0.90;;
73089;SDS011;61269;49.450;8.610;2023-04-03T12:46:51;2.10;;;0.95;;
73089;SDS011;61269;49.450;8.610;2023-04-03T12:49:33;3.83;;;1.35;;
73089;SDS011;61269;49.450;8.610;2023-04-03T12:52:04;2.17;;;0.97;;
73089;SDS011;61269;49.450;8.610;2023-04-03T12:54:35;2.55;;;1.00;;
73089;SDS011;61269;49.450;8.610;2023-04-03T12:57:11;4.20;;;1.25;;
73089;SDS011;61269;49.450;8.610;2023-04-03T12:59:39;3.10;;;1.02;;
73089;SDS011;61269;49.450;8.610;2023-04-03T13:02:15;1.70;;;0.90;;
73089;SDS011;61269;49.450;8.610;2023-04-03T13:04:49;2.87;;;1.10;;
73089;SDS011;61269;49.450;8.610;2023-04-03T13:07:21;2.25;;;1.15;;
73089;SDS011;61269;49.450;8.610;2023-04-03T13:09:56;1.75;;;1.00;;
73089;SDS011;61269;49.450;8.610;2023-04-03T13:12:26;1.85;;;1.00;;
73089;SDS011;61269;49.450;8.610;2023-04-03T13:14:58;3.05;;;1.13;;
73089;SDS011;61269;49.450;8.610;2023-04-03T13:17:28;3.17;;;1.27;;
73089;SDS011;61269;49.450;8.610;2023-04-03T13:20:06;3.45;;;1.20;;
73089;SDS011;61269;49.450;8.610;2023-04-03T13:22:38;3.38;;;1.30;;
73089;SDS011;61269;49.450;8.610;2023-04-03T13:25:11;1.83;;;1.10;;
73089;SDS011;61269;49.450;8.610;2023-04-03T13:27:41;2.75;;;1.20;;
73089;SDS011;61269;49.450;8.610;2023-04-03T13:30:21;2.97;;;1.07;;
73089;SDS011;61269;49.450;8.610;2023-04-03T13:32:53;1.95;;;0.90;;
73089;SDS011;61269;49.450;8.610;2023-04-03T13:35:31;2.33;;;1.27;;
73089;SDS011;61269;49.450;8.610;2023-04-03T13:38:04;4.30;;;1.63;;
73089;SDS011;61269;49.450;8.610;2023-04-03T13:40:45;3.28;;;1.20;;
73089;SDS011;61269;49.450;8.610;2023-04-03T13:43:20;2.30;;;1.03;;
73089;SDS011;61269;49.450;8.610;2023-04-03T13:46:00;2.30;;;1.00;;
73089;SDS011;61269;49.450;8.610;2023-04-03T13:48:36;3.85;;;1.00;;
73089;SDS011;61269;49.450;8.610;2023-04-03T13:51:16;3.08;;;1.13;;
73089;SDS011;61269;49.450;8.610;2023-04-03T13:53:47;2.13;;;1.25;;
73089;SDS011;61269;49.450;8.610;2023-04-03T13:56:19;2.37;;;1.00;;
73089;SDS011;61269;49.450;8.610;2023-04-03T13:58:53;1.30;;;0.50;;
73089;SDS011;61269;49.450;8.610;2023-04-03T14:01:33;2.35;;;0.75;;
73089;SDS011;61269;49.450;8.610;2023-04-03T14:04:09;2.25;;;1.20;;
73089;SDS011;61269;49.450;8.610;2023-04-03T14:06:40;2.13;;;0.77;;
73089;SDS011;61269;49.450;8.610;2023-04-03T14:09:09;3.90;;;1.10;;
73089;SDS011;61269;49.450;8.610;2023-04-03T14:11:37;2.17;;;1.40;;
73089;SDS011;61269;49.450;8.610;2023-04-03T14:14:09;2.85;;;1.25;;
73089;SDS011;61269;49.450;8.610;2023-04-03T14:16:41;1.77;;;0.82;;
73089;SDS011;61269;49.450;8.610;2023-04-03T14:19:16;1.77;;;0.77;;
73089;SDS011;61269;49.450;8.610;2023-04-03T14:21:48;1.87;;;0.70;;
73089;SDS011;61269;49.450;8.610;2023-04-03T14:24:17;1.48;;;0.70;;
73089;SDS011;61269;49.450;8.610;2023-04-03T14:26:46;2.45;;;0.90;;
73089;SDS011;61269;49.450;8.610;2023-04-03T14:29:14;3.35;;;0.75;;
73089;SDS011;61269;49.450;8.610;2023-04-03T14:31:43;1.70;;;0.88;;
73089;SDS011;61269;49.450;8.610;2023-04-03T14:34:13;2.70;;;0.80;;
73089;SDS011;61269;49.450;8.610;2023-04-03T14:36:43;1.70;;;0.50;;
73089;SDS011;61269;49.450;8.610;2023-04-03T14:39:16;1.60;;;0.55;;
73089;SDS011;61269;49.450;8.610;2023-04-03T14:41:45;2.33;;;0.52;;
73089;SDS011;61269;49.450;8.610;2023-04-03T14:44:14;2.90;;;0.90;;
73089;SDS011;61269;49.450;8.610;2023-04-03T14:46:43;3.07;;;0.70;;
73089;SDS011;61269;49.450;8.610;2023-04-03T14:49:24;2.25;;;0.82;;
73089;SDS011;61269;49.450;8.610;2023-04-03T14:51:54;2.65;;;1.40;;
73089;SDS011;61269;49.450;8.610;2023-04-03T14:54:24;3.85;;;0.98;;
73089;SDS011;61269;49.450;8.610;2023-04-03T14:56:55;3.50;;;1.00;;
73089;SDS011;61269;49.450;8.610;2023-04-03T14:59:25;2.40;;;0.83;;
73089;SDS011;61269;49.450;8.610;2023-04-03T15:01:54;2.03;;;0.50;;
73089;SDS011;61269;49.450;8.610;2023-04-03T15:04:22;1.92;;;0.88;;
73089;SDS011;61269;49.450;8.610;2023-04-03T15:06:52;2.13;;;0.90;;
73089;SDS011;61269;49.450;8.610;2023-04-03T15:09:21;3.85;;;0.98;;
73089;SDS011;61269;49.450;8.610;2023-04-03T15:11:52;2.33;;;1.00;;
73089;SDS011;61269;49.450;8.610;2023-04-03T15:14:21;2.55;;;0.80;;
73089;SDS011;61269;49.450;8.610;2023-04-03T15:17:03;2.03;;;0.80;;
73089;SDS011;61269;49.450;8.610;2023-04-03T15:19:32;2.55;;;0.73;;
73089;SDS011;61269;49.450;8.610;2023-04-03T15:22:04;1.30;;;0.38;;
73089;SDS011;61269;49.450;8.610;2023-04-03T15:24:33;3.33;;;0.70;;
73089;SDS011;61269;49.450;8.610;2023-04-03T15:27:02;3.00;;;0.82;;
73089;SDS011;61269;49.450;8.610;2023-04-03T15:29:30;2.65;;;0.80;;
73089;SDS011;61269;49.450;8.610;2023-04-03T15:31:58;1.70;;;0.77;;
73089;SDS011;61269;49.450;8.610;2023-04-03T15:34:27;1.75;;;0.77;;
73089;SDS011;61269;49.450;8.610;2023-04-03T15:36:56;1.60;;;0.67;;